createdAt,value
2022-11-22T00:00:12.644Z,7.74
2022-11-22T00:03:14.231Z,7.74
2022-11-22T00:06:15.774Z,7.72
2022-11-22T00:09:17.344Z,7.73
2022-11-22T00:12:18.894Z,7.73
2022-11-22T00:15:20.481Z,7.75
2022-11-22T00:18:21.963Z,7.75
2022-11-22T00:21:23.532Z,7.71
2022-11-22T00:24:25.059Z,7.71
2022-11-22T00:27:27.018Z,7.69
2022-11-22T00:30:28.763Z,7.67
2022-11-22T00:33:30.480Z,7.65
2022-11-22T00:36:32.004Z,7.65
2022-11-22T00:39:33.608Z,7.63
2022-11-22T00:42:35.170Z,7.61
2022-11-22T00:45:36.697Z,7.60
2022-11-22T00:48:38.342Z,7.60
2022-11-22T00:51:40.459Z,7.62
2022-11-22T00:54:42.005Z,7.64
2022-11-22T00:57:43.518Z,7.64
2022-11-22T01:00:45.158Z,7.59
2022-11-22T01:03:46.836Z,7.60
2022-11-22T01:06:48.374Z,7.60
2022-11-22T01:09:49.998Z,7.61
2022-11-22T01:12:51.499Z,7.65
2022-11-22T01:15:53.455Z,7.65
2022-11-22T01:18:55.083Z,7.66
2022-11-22T01:21:56.782Z,7.63
2022-11-22T01:24:58.344Z,7.61
2022-11-22T01:27:59.901Z,7.63
2022-11-22T01:31:01.453Z,7.61
2022-11-22T01:34:05.293Z,7.62
2022-11-22T01:37:07.163Z,7.61
2022-11-22T01:40:11.053Z,7.56
2022-11-22T01:43:21.498Z,7.57
2022-11-22T01:46:37.382Z,7.51
2022-11-22T01:49:41.991Z,7.43
2022-11-22T01:52:43.512Z,7.37
2022-11-22T01:55:45.754Z,7.40
2022-11-22T01:58:51.744Z,7.40
2022-11-22T02:01:54.173Z,7.38
2022-11-22T02:04:58.436Z,7.34
2022-11-22T02:08:05.896Z,7.32
2022-11-22T02:11:09.578Z,7.33
2022-11-22T02:14:12.208Z,7.33
2022-11-22T02:17:13.803Z,7.33
2022-11-22T02:20:17.269Z,7.35
2022-11-22T02:23:48.031Z,7.30
2022-11-22T02:26:49.680Z,7.29
2022-11-22T02:29:51.379Z,7.24
2022-11-22T02:32:52.916Z,7.17
2022-11-22T02:35:55.118Z,7.15
2022-11-22T02:38:56.795Z,7.09
2022-11-22T02:41:58.442Z,7.11
2022-11-22T02:44:59.933Z,7.09
2022-11-22T02:48:10.235Z,7.06
2022-11-22T02:51:17.011Z,7.07
2022-11-22T02:54:19.630Z,7.10
2022-11-22T02:57:21.174Z,7.14
2022-11-22T03:00:23.085Z,7.19
2022-11-22T03:03:24.611Z,7.20
2022-11-22T03:06:26.305Z,7.19
2022-11-22T03:09:28.707Z,7.18
2022-11-22T03:12:30.548Z,7.12
2022-11-22T03:15:32.243Z,7.01
2022-11-22T03:18:34.655Z,6.94
2022-11-22T03:21:37.803Z,6.89
2022-11-22T03:24:39.406Z,6.86
2022-11-22T03:27:40.999Z,6.80
2022-11-22T03:30:42.549Z,6.79
2022-11-22T03:33:44.119Z,6.81
2022-11-22T03:36:45.939Z,6.87
2022-11-22T03:39:47.546Z,6.94
2022-11-22T03:42:49.120Z,6.95
2022-11-22T03:45:50.705Z,6.95
2022-11-22T03:48:54.310Z,6.96
2022-11-22T03:51:55.892Z,6.93
2022-11-22T03:54:57.473Z,6.87
2022-11-22T03:57:59.118Z,6.84
2022-11-22T04:01:01.456Z,6.84
2022-11-22T04:04:03.203Z,6.84
2022-11-22T04:07:04.762Z,6.84
2022-11-22T04:10:07.228Z,6.82
2022-11-22T04:13:08.777Z,6.83
2022-11-22T04:16:10.294Z,6.86
2022-11-22T04:19:11.916Z,6.76
2022-11-22T04:22:13.427Z,6.77
2022-11-22T04:25:15.081Z,6.74
2022-11-22T04:28:18.983Z,6.80
2022-11-22T04:31:38.852Z,6.82
2022-11-22T04:34:40.470Z,6.79
2022-11-22T04:37:43.228Z,6.79
2022-11-22T04:40:45.530Z,6.78
2022-11-22T04:44:05.504Z,6.75
2022-11-22T04:47:08.717Z,6.72
2022-11-22T04:50:39.295Z,6.74
2022-11-22T04:53:40.882Z,6.71
2022-11-22T04:56:42.395Z,6.65
2022-11-22T04:59:44.204Z,6.66
2022-11-22T05:02:45.711Z,6.66
2022-11-22T05:05:47.253Z,6.64
2022-11-22T05:08:48.768Z,6.63
2022-11-22T05:11:50.284Z,6.59
2022-11-22T05:14:51.863Z,6.56
2022-11-22T05:17:53.448Z,6.57
2022-11-22T05:20:55.219Z,6.54
2022-11-22T05:23:57.157Z,6.52
2022-11-22T05:26:58.708Z,6.55
2022-11-22T05:30:00.317Z,6.54
2022-11-22T05:33:01.775Z,6.54
2022-11-22T05:36:03.962Z,6.53
2022-11-22T05:39:05.468Z,6.50
2022-11-22T05:42:07.270Z,6.46
2022-11-22T05:45:11.562Z,6.44
2022-11-22T05:48:13.498Z,6.43
2022-11-22T05:51:18.106Z,6.40
2022-11-22T05:54:22.734Z,6.38
2022-11-22T05:57:24.255Z,6.38
2022-11-22T06:00:30.736Z,6.38
2022-11-22T06:03:32.647Z,6.36
2022-11-22T06:06:34.133Z,6.32
2022-11-22T06:09:35.771Z,6.30
2022-11-22T06:12:37.314Z,6.28
2022-11-22T06:15:38.806Z,6.28
2022-11-22T06:18:40.510Z,6.27
2022-11-22T06:21:42.452Z,6.23
2022-11-22T06:24:44.033Z,6.21
2022-11-22T06:27:45.618Z,6.18
2022-11-22T06:30:47.216Z,6.16
2022-11-22T06:33:48.820Z,6.13
2022-11-22T06:36:50.467Z,6.11
2022-11-22T06:39:51.937Z,6.12
2022-11-22T06:42:53.446Z,6.14
2022-11-22T06:45:59.335Z,6.10
2022-11-22T06:49:00.942Z,6.06
2022-11-22T06:52:02.454Z,6.07
2022-11-22T06:55:07.948Z,6.02
2022-11-22T06:58:09.826Z,5.96
2022-11-22T07:01:20.125Z,5.95
2022-11-22T07:04:21.840Z,5.93
2022-11-22T07:07:23.392Z,5.94
2022-11-22T07:10:25.005Z,5.92
2022-11-22T07:13:27.049Z,5.93
2022-11-22T07:16:28.598Z,5.98
2022-11-22T07:19:30.553Z,5.98
2022-11-22T07:22:32.470Z,5.97
2022-11-22T07:25:34.027Z,5.99
2022-11-22T07:28:35.913Z,6.03
2022-11-22T07:31:37.423Z,6.03
2022-11-22T07:34:38.932Z,6.06
2022-11-22T07:37:40.452Z,6.07
2022-11-22T07:40:42.042Z,6.09
2022-11-22T07:43:44.257Z,6.14
2022-11-22T07:46:47.870Z,6.21
2022-11-22T07:49:49.336Z,6.24
2022-11-22T07:53:00.514Z,6.22
2022-11-22T07:56:03.310Z,6.15
2022-11-22T07:59:04.924Z,6.13
2022-11-22T08:02:06.497Z,6.16
2022-11-22T08:05:08.407Z,6.17
2022-11-22T08:08:09.940Z,6.23
2022-11-22T08:11:12.248Z,6.27
2022-11-22T08:14:13.883Z,6.39
2022-11-22T08:17:15.528Z,6.47
2022-11-22T08:20:17.140Z,6.59
2022-11-22T08:23:18.921Z,6.64
2022-11-22T08:26:21.172Z,6.57
2022-11-22T08:29:22.776Z,6.62
2022-11-22T08:32:24.254Z,6.72
2022-11-22T08:35:25.876Z,6.82
2022-11-22T08:38:27.750Z,6.91
2022-11-22T08:41:29.498Z,7.04
2022-11-22T08:44:31.164Z,7.12
2022-11-22T08:47:32.820Z,7.21
2022-11-22T08:50:34.399Z,7.18
2022-11-22T08:53:42.273Z,7.22
2022-11-22T08:56:43.779Z,7.33
2022-11-22T08:59:45.391Z,7.46
2022-11-22T09:02:46.950Z,7.46
2022-11-22T09:12:31.969Z,7.42
2022-11-22T09:15:34.151Z,7.32
2022-11-22T09:18:36.259Z,7.32
2022-11-22T09:21:37.825Z,7.16
2022-11-22T09:24:39.441Z,7.16
2022-11-22T09:27:40.948Z,7.23
2022-11-22T09:30:42.418Z,7.24
2022-11-22T09:33:47.125Z,7.26
2022-11-22T09:36:48.650Z,7.37
2022-11-22T09:39:50.367Z,7.57
2022-11-22T09:43:04.844Z,7.84
2022-11-22T09:46:22.007Z,7.95
2022-11-22T09:49:34.352Z,7.81
2022-11-22T09:52:53.927Z,7.79
2022-11-22T09:56:00.699Z,7.79
2022-11-22T09:59:07.915Z,7.59
2022-11-22T10:02:29.593Z,7.29
2022-11-22T10:05:35.856Z,7.26
2022-11-22T10:08:43.241Z,7.20
2022-11-22T10:12:27.663Z,7.23
2022-11-22T10:15:39.135Z,7.24
2022-11-22T10:18:54.183Z,7.32
2022-11-22T10:21:55.746Z,7.19
2022-11-22T10:25:00.166Z,7.09
2022-11-22T10:28:13.795Z,7.20
2022-11-22T10:31:28.188Z,7.28
2022-11-22T10:34:38.802Z,7.17
2022-11-22T10:38:01.900Z,7.22
2022-11-22T10:41:03.512Z,7.44
2022-11-22T10:44:08.031Z,7.65
2022-11-22T10:47:09.585Z,7.89
2022-11-22T10:50:22.069Z,8.22
2022-11-22T10:53:44.806Z,8.50
2022-11-22T10:56:53.469Z,8.47
2022-11-22T11:00:18.446Z,8.49
2022-11-22T11:03:25.099Z,8.50
2022-11-22T11:06:57.030Z,8.47
2022-11-22T11:13:27.159Z,8.87
2022-11-22T11:16:36.350Z,8.97
2022-11-22T11:19:41.792Z,9.12
2022-11-22T11:26:25.604Z,9.35
2022-11-22T11:29:37.693Z,9.38
2022-11-22T11:32:55.167Z,9.28
2022-11-22T11:36:03.665Z,9.25
2022-11-22T11:39:19.092Z,9.16
2022-11-22T11:42:26.728Z,9.05
2022-11-22T11:45:29.199Z,8.74
2022-11-22T11:48:41.246Z,8.90
2022-11-22T11:51:44.019Z,9.02
2022-11-22T11:54:48.080Z,9.04
2022-11-22T11:57:51.590Z,9.03
2022-11-22T12:00:53.174Z,9.06
2022-11-22T12:04:01.924Z,8.85
2022-11-22T12:07:16.813Z,8.71
2022-11-22T12:10:41.185Z,8.49
2022-11-22T12:17:28.414Z,8.30
2022-11-22T12:20:41.724Z,8.30
2022-11-22T12:24:41.309Z,8.43
2022-11-22T12:27:32.737Z,8.59
2022-11-22T12:30:34.870Z,8.71
2022-11-22T12:33:46.648Z,8.81
2022-11-22T12:36:56.389Z,8.81
2022-11-22T12:40:03.039Z,8.79
2022-11-22T12:43:12.115Z,8.73
2022-11-22T12:46:19.863Z,8.72
2022-11-22T12:49:30.540Z,8.68
2022-11-22T12:52:39.829Z,8.61
2022-11-22T12:56:10.801Z,8.50
2022-11-22T12:59:34.795Z,8.66
2022-11-22T13:02:46.901Z,8.96
2022-11-22T13:05:58.027Z,9.06
2022-11-22T13:09:05.120Z,8.96
2022-11-22T13:12:13.733Z,8.98
2022-11-22T13:15:25.755Z,9.31
2022-11-22T13:18:32.499Z,9.46
2022-11-22T13:22:09.307Z,9.44
2022-11-22T13:25:10.786Z,9.50
2022-11-22T13:28:25.225Z,9.42
2022-11-22T13:31:26.616Z,9.40
2022-11-22T13:34:28.884Z,9.40
2022-11-22T13:37:36.486Z,9.41
2022-11-22T13:40:52.359Z,9.46
2022-11-22T13:44:15.668Z,9.46
2022-11-22T13:47:17.284Z,9.31
2022-11-22T13:50:40.525Z,9.17
2022-11-22T13:53:46.929Z,8.66
2022-11-22T13:57:00.145Z,8.59
2022-11-22T14:00:14.170Z,8.63
2022-11-22T14:03:15.862Z,8.70
2022-11-22T14:06:23.535Z,8.80
2022-11-22T14:09:43.470Z,8.66
2022-11-22T14:12:54.196Z,8.48
2022-11-22T14:16:21.511Z,8.32
2022-11-22T14:19:41.682Z,8.21
2022-11-22T14:23:06.527Z,8.10
2022-11-22T14:26:28.258Z,8.06
2022-11-22T14:29:53.491Z,8.00
2022-11-22T14:33:04.907Z,8.01
2022-11-22T14:36:06.501Z,7.93
2022-11-22T14:39:45.032Z,7.84
2022-11-22T14:42:50.678Z,7.90
2022-11-22T14:45:55.375Z,7.84
2022-11-22T14:49:04.599Z,7.88
2022-11-22T14:52:20.080Z,7.81
2022-11-22T14:55:26.538Z,7.77
2022-11-22T14:58:30.042Z,7.81
2022-11-22T15:01:56.508Z,7.74
2022-11-22T15:09:22.562Z,7.74
2022-11-22T15:09:46.451Z,7.71
2022-11-22T15:13:17.543Z,7.70
2022-11-22T15:58:03.139Z,7.39
2022-11-22T16:01:19.459Z,7.43
2022-11-22T16:04:34.885Z,7.44
2022-11-22T16:07:39.416Z,7.37
2022-11-22T16:10:42.559Z,7.39
2022-11-22T16:13:44.173Z,7.41
2022-11-22T16:16:45.630Z,7.40
2022-11-22T16:19:47.300Z,7.40
2022-11-22T16:23:10.477Z,7.38
2022-11-22T16:26:17.687Z,7.39
2022-11-22T16:29:32.551Z,7.40
2022-11-22T16:32:34.715Z,7.38
2022-11-22T16:35:36.497Z,7.34
2022-11-22T16:38:38.071Z,7.40
2022-11-22T16:41:39.634Z,7.41
2022-11-22T16:44:41.227Z,7.45
2022-11-22T16:47:43.579Z,7.41
2022-11-22T16:50:47.561Z,7.35
2022-11-22T16:53:50.635Z,7.38
2022-11-22T16:56:52.244Z,7.39
2022-11-22T16:59:54.345Z,7.37
2022-11-22T17:02:56.338Z,7.38
2022-11-22T17:05:57.831Z,7.36
2022-11-22T17:09:00.452Z,7.31
2022-11-22T17:12:02.424Z,7.32
2022-11-22T17:15:04.166Z,7.31
2022-11-22T17:18:05.690Z,7.34
2022-11-22T17:21:24.063Z,7.35
2022-11-22T17:24:25.628Z,7.36
2022-11-22T17:27:27.106Z,7.33
2022-11-22T17:30:28.643Z,7.31
2022-11-22T17:33:30.231Z,7.33
2022-11-22T17:36:34.190Z,7.29
2022-11-22T17:39:38.415Z,7.26
2022-11-22T17:42:41.451Z,7.29
2022-11-22T17:45:43.634Z,7.30
2022-11-22T17:48:52.811Z,7.30
2022-11-22T17:51:54.396Z,7.30
2022-11-22T17:54:58.352Z,7.31
2022-11-22T17:58:03.767Z,7.32
2022-11-22T18:01:07.151Z,7.32
2022-11-22T18:04:08.825Z,7.30
2022-11-22T18:07:13.249Z,7.25
2022-11-22T18:10:17.914Z,7.27
2022-11-22T18:13:21.857Z,7.25
2022-11-22T18:16:28.402Z,7.27
2022-11-22T18:19:30.428Z,7.23
2022-11-22T18:22:32.206Z,7.25
2022-11-22T18:25:33.777Z,7.29
2022-11-22T18:28:36.116Z,7.25
2022-11-22T18:31:51.152Z,7.24
2022-11-22T18:34:53.720Z,7.22
2022-11-22T18:37:55.345Z,7.16
2022-11-22T18:41:00.948Z,7.13
2022-11-22T18:44:07.028Z,7.19
2022-11-22T18:47:10.294Z,7.18
2022-11-22T18:53:19.609Z,7.16
2022-11-22T18:56:21.214Z,7.16
2022-11-22T18:59:22.941Z,7.18
2022-11-22T19:02:25.900Z,7.11
2022-11-22T19:05:27.709Z,7.11
2022-11-22T19:08:29.230Z,7.12
2022-11-22T19:11:32.042Z,7.07
2022-11-22T19:14:33.910Z,7.11
2022-11-22T19:17:39.840Z,7.09
2022-11-22T19:20:55.288Z,7.08
2022-11-22T19:23:57.620Z,7.13
2022-11-22T19:26:59.843Z,7.12
2022-11-22T19:30:01.771Z,7.11
2022-11-22T19:33:03.443Z,7.13
2022-11-22T19:36:07.897Z,7.12
2022-11-22T19:39:14.979Z,7.12
2022-11-22T19:42:17.707Z,7.04
2022-11-22T19:45:19.329Z,7.05
2022-11-22T19:48:20.956Z,6.98
2022-11-22T19:51:23.664Z,6.97
2022-11-22T19:54:25.273Z,6.99
2022-11-22T19:57:26.791Z,6.98
2022-11-22T20:00:34.805Z,7.03
2022-11-22T20:03:38.527Z,7.02
2022-11-22T20:06:40.335Z,7.02
2022-11-22T20:09:41.887Z,6.98
2022-11-22T20:12:43.990Z,7.00
2022-11-22T20:15:45.568Z,6.99
2022-11-22T20:18:47.330Z,7.00
2022-11-22T20:21:49.517Z,6.93
2022-11-22T20:24:51.395Z,6.88
2022-11-22T20:27:53.063Z,6.92
2022-11-22T20:31:14.781Z,6.87
2022-11-22T20:34:16.386Z,6.81
2022-11-22T20:37:17.959Z,6.86
2022-11-22T20:40:19.967Z,6.88
2022-11-22T20:43:21.522Z,6.85
2022-11-22T20:46:25.754Z,6.86
2022-11-22T20:49:28.230Z,6.83
2022-11-22T20:52:29.713Z,6.80
2022-11-22T20:55:31.231Z,6.83
2022-11-22T20:58:33.155Z,6.84
2022-11-22T21:01:34.864Z,6.88
2022-11-22T21:04:36.826Z,6.84
2022-11-22T21:07:38.301Z,6.83
2022-11-22T21:10:39.792Z,6.84
2022-11-22T21:13:42.744Z,6.86
2022-11-22T21:16:44.300Z,6.87
2022-11-22T21:19:45.838Z,6.91
2022-11-22T21:22:52.378Z,6.89
2022-11-22T21:25:53.863Z,6.92
2022-11-22T21:28:56.198Z,6.94
2022-11-22T21:31:58.051Z,6.93
2022-11-22T21:34:59.511Z,6.95
2022-11-22T21:38:00.983Z,6.97
2022-11-22T21:41:24.309Z,6.99
2022-11-22T21:44:26.335Z,6.93
2022-11-22T21:47:27.850Z,6.96
2022-11-22T21:50:29.339Z,6.97
2022-11-22T21:53:31.595Z,6.93
2022-11-22T21:56:33.178Z,6.94
2022-11-22T21:59:35.694Z,6.89
2022-11-22T22:02:37.177Z,6.83
2022-11-22T22:05:38.707Z,6.82
2022-11-22T22:08:40.799Z,6.82
2022-11-22T22:11:45.555Z,6.82
2022-11-22T22:14:47.393Z,6.83
2022-11-22T22:17:52.519Z,6.79
2022-11-22T22:21:02.002Z,6.70
2022-11-22T22:24:03.936Z,6.66
2022-11-22T22:27:05.392Z,6.65
2022-11-22T22:30:08.730Z,6.67
2022-11-22T22:33:10.172Z,6.68
2022-11-22T22:36:11.763Z,6.70
2022-11-22T22:39:13.262Z,6.70
2022-11-22T22:42:15.244Z,6.72
2022-11-22T22:45:16.745Z,6.75
2022-11-22T22:48:19.023Z,6.76
2022-11-22T22:51:31.917Z,6.77
2022-11-22T22:54:34.728Z,6.73
2022-11-22T22:57:36.175Z,6.73
2022-11-22T23:00:37.685Z,6.78
2022-11-22T23:03:39.952Z,6.82
2022-11-22T23:06:41.436Z,6.81
2022-11-22T23:09:42.963Z,6.78
2022-11-22T23:12:44.398Z,6.75
2022-11-22T23:15:58.059Z,6.70
2022-11-22T23:19:00.088Z,6.70
2022-11-22T23:22:01.969Z,6.67
2022-11-22T23:25:03.627Z,6.66
2022-11-22T23:28:06.292Z,6.75
2022-11-22T23:31:12.774Z,6.74
2022-11-22T23:34:14.365Z,6.79
2022-11-22T23:37:16.092Z,6.81
2022-11-22T23:40:17.614Z,6.80
2022-11-22T23:43:19.176Z,6.73
2022-11-22T23:46:21.489Z,6.70
2022-11-22T23:49:22.931Z,6.62
2022-11-22T23:52:24.363Z,6.57
2022-11-22T23:55:25.857Z,6.53
2022-11-22T23:58:29.903Z,6.52
